KSAC/SAC METAR and TAF weather

Enter ICAO airport designator
Station Type Date Time Source
KSAC METAR 2019/06/27 04:53 UTC NOAA

KSAC 270453Z AUTO 21009G16KT 10SM CLR 15/11 A2998 RMK AO2 PK WND 21027/0411 SLP152 T01500106


Station Type Date Time Source
KSAC Decoded METAR 2019/06/27 04:53 UTC NOAA

SACRAMENTO EXECUTIVE AIRPORT , CA, United States (KSAC) 38-30N 121-30W 11M
Jun 27, 2019 - 12:53 AM EDT / 2019.06.27 0453 UTC
Wind: from the SSW (210 degrees) at 10 MPH (9 KT) gusting to 18 MPH (16 KT):0
Visibility: 10 mile(s):0
Sky conditions: clear
Temperature: 59.0 F (15.0 C)
Dew Point: 51.1 F (10.6 C)
Relative Humidity: 74%
Pressure (altimeter): 29.98 in. Hg (1015 hPa)
ob: KSAC 270453Z AUTO 21009G16KT 10SM CLR 15/11 A2998 RMK AO2 PK WND 21027/0411 SLP152 T01500106
cycle: 5

Station Type Date Time Source
KSAC TAF 2019/06/26 18:36 UTC NOAA

TAF KSAC 261734Z 2618/2718 22014G20KT P6SM FEW250
FM270800 17006KT P6SM SKC
TEMPO 2713/2717 BKN010

Example: see airport list